메인 페이지
METAR-TAF:

METAR-TAF

공항 :

다르에스살람, 탄자니아

위도: 06-52S, 경도: 039-12E, 고도: 55m

현재 날씨관측

예보는 1 시간 39분 전, 08:00시(UTC)에 발표되었습니다.
10kt
온도 29°C
습도 79%
기압 1010 hPa
시정 10km 이상
고도 1500ft 상공 구름 보통
고도 9000ft 상공 구름 보통

METAR: HTDA 180800Z 01010KT 9999 SCT015 SCT090 29/25 Q1010 NOSIG

시각: 12:39 (09:39 UTC)

예보

예보는 4 시간 39분 전, 05:00시(UTC)에 발표되었습니다.
예보 대상 시간: 18일 06시부터 19일 12시까지 (UTC)
15kt
시정 10km 이상
고도 2000ft 상공 구름 많음
고도 2100ft 상공 구름 조금, 적란운.
일시적
18일 08시부터 18일 11시까지 (UTC)
소나기
전환 중
18일 14시부터 18일 16시까지 (UTC)
북북동15kt
고도 1900ft 상공 구름 보통
일시적
18일 22시부터 19일 03시까지 (UTC)
고도 1300ft 상공 구름 보통
고도 1400ft 상공 구름 조금, 적란운.
고도 8000ft 상공 구름 많음
뇌우, 비
전환 중
19일 09시부터 19일 12시까지 (UTC)
10kt
고도 2400ft 상공 구름 많음

TAF: HTDA 180500Z 1806/1912 35015KT 9999 BKN020 FEW021CB TEMPO 1808/1811 SHRA BECMG 1814/1816 02015KT SCT019 TEMPO 1822/1903 TSRA SCT013 FEW014CB BKN080 BECMG 1909/1912 35010KT BKN024

4,000개 이상의 공항 관측 자료 및 예보 (METAR 및 TAF 보고).

지도상에서 검색 가능한 기상관측소가 노란 점과 빨간 점으로 표시되어 있습니다.

기상관측소 명을 보려면 표시 위로 마우스를 이동하세요.

날씨 관측과 예보를 보려면 클릭하세요.

지도 변경 : 확대하려면 엑스 표시가 있는 녹색 버튼, 축소하려면 빼기 표시가 있는 녹색 버튼, 다음 페이지의 지도를 보려면 녹색 화살표를 클릭하세요.


METAR-TAF: